createdAt,value
2023-03-02T00:00:41.148Z,11.70
2023-03-02T00:03:08.283Z,8.98
2023-03-02T00:05:37.184Z,11.50
2023-03-02T00:08:04.438Z,10.77
2023-03-02T00:10:31.439Z,10.05
2023-03-02T00:12:59.220Z,9.65
2023-03-02T00:15:26.693Z,8.20
2023-03-02T00:17:53.328Z,12.13
2023-03-02T00:20:20.028Z,11.77
2023-03-02T00:22:47.314Z,11.77
2023-03-02T00:25:15.900Z,11.10
2023-03-02T00:27:43.093Z,9.50
2023-03-02T00:30:11.958Z,10.32
2023-03-02T00:32:38.562Z,11.23
2023-03-02T00:35:05.976Z,12.93
2023-03-02T00:37:32.672Z,10.07
2023-03-02T00:39:59.531Z,8.40
2023-03-02T00:42:26.195Z,12.27
2023-03-02T00:44:53.744Z,9.25
2023-03-02T00:47:20.370Z,11.48
2023-03-02T00:49:49.505Z,12.65
2023-03-02T00:52:17.081Z,9.20
2023-03-02T00:54:43.671Z,14.35
2023-03-02T00:57:10.737Z,11.27
2023-03-02T00:59:38.466Z,12.85
2023-03-02T01:02:14.645Z,12.80
2023-03-02T01:04:44.833Z,11.85
2023-03-02T01:07:15.829Z,10.57
2023-03-02T01:09:44.447Z,7.93
2023-03-02T01:12:11.833Z,11.67
2023-03-02T01:14:40.010Z,11.77
2023-03-02T01:17:07.469Z,10.38
2023-03-02T01:19:34.864Z,11.68
2023-03-02T01:22:02.104Z,11.32
2023-03-02T01:24:28.789Z,10.52
2023-03-02T01:26:55.362Z,11.10
2023-03-02T01:29:22.270Z,10.65
2023-03-02T01:31:48.952Z,11.13
2023-03-02T01:34:15.690Z,15.93
2023-03-02T01:36:45.517Z,11.43
2023-03-02T01:41:45.021Z,10.85
2023-03-02T01:44:33.809Z,13.23
2023-03-02T01:47:00.697Z,13.65
2023-03-02T01:49:28.123Z,12.60
2023-03-02T01:51:58.523Z,13.43
2023-03-02T01:54:25.780Z,13.00
2023-03-02T01:57:01.924Z,11.48
2023-03-02T01:59:31.439Z,13.55
2023-03-02T02:02:01.727Z,10.82
2023-03-02T02:04:31.038Z,11.43
2023-03-02T02:07:08.938Z,13.80
2023-03-02T02:09:48.948Z,15.43
2023-03-02T02:12:18.514Z,9.70
2023-03-02T02:14:46.133Z,10.07
2023-03-02T02:17:13.747Z,11.07
2023-03-02T02:19:58.483Z,11.25
2023-03-02T02:22:49.599Z,14.95
2023-03-02T02:25:53.066Z,14.20
2023-03-02T02:28:25.113Z,11.13
2023-03-02T02:31:23.877Z,9.45
2023-03-02T02:33:55.392Z,12.15
2023-03-02T02:36:33.474Z,13.95
2023-03-02T02:39:06.573Z,10.10
2023-03-02T02:41:39.158Z,9.77
2023-03-02T02:44:07.099Z,10.73
2023-03-02T02:46:34.445Z,9.98
2023-03-02T02:49:02.985Z,13.43
2023-03-02T02:51:29.906Z,10.07
2023-03-02T02:54:01.803Z,12.23
2023-03-02T02:56:38.225Z,10.50
2023-03-02T02:59:16.210Z,9.73
2023-03-02T03:01:44.502Z,13.77
2023-03-02T03:04:14.175Z,13.35
2023-03-02T03:06:51.006Z,12.52
2023-03-02T03:09:20.108Z,12.20
2023-03-02T03:11:52.243Z,12.27
2023-03-02T03:14:25.310Z,10.80
2023-03-02T03:16:53.162Z,12.68
2023-03-02T03:19:22.666Z,10.52
2023-03-02T03:21:53.081Z,11.82
2023-03-02T03:24:21.547Z,11.63
2023-03-02T03:26:49.252Z,11.70
2023-03-02T03:29:18.609Z,15.43
2023-03-02T03:31:47.904Z,9.30
2023-03-02T03:34:14.658Z,12.13
2023-03-02T03:36:43.309Z,12.20
2023-03-02T03:39:11.414Z,13.17
2023-03-02T03:41:38.519Z,13.63
2023-03-02T03:44:06.925Z,11.88
2023-03-02T03:46:36.341Z,10.02
2023-03-02T03:49:04.412Z,11.10
2023-03-02T03:51:35.685Z,15.10
2023-03-02T03:54:08.232Z,8.85
2023-03-02T03:56:44.979Z,12.77
2023-03-02T03:59:18.519Z,11.75
2023-03-02T04:01:54.291Z,14.35
2023-03-02T04:04:34.153Z,12.07
2023-03-02T04:07:04.716Z,10.55
2023-03-02T04:09:37.831Z,11.88
2023-03-02T04:12:07.576Z,11.90
2023-03-02T04:14:34.851Z,10.77
2023-03-02T04:17:05.364Z,12.73
2023-03-02T04:19:35.488Z,13.10
2023-03-02T04:22:04.072Z,11.43
2023-03-02T04:24:32.374Z,10.38
2023-03-02T04:27:01.710Z,9.88
2023-03-02T04:29:29.005Z,13.45
2023-03-02T04:31:55.848Z,15.38
2023-03-02T04:34:25.581Z,12.70
2023-03-02T04:36:52.900Z,14.32
2023-03-02T04:39:20.798Z,10.93
2023-03-02T04:41:50.965Z,13.52
2023-03-02T04:44:18.219Z,9.35
2023-03-02T04:46:45.712Z,10.05
2023-03-02T04:49:13.826Z,16.23
2023-03-02T04:51:43.746Z,14.60
2023-03-02T04:54:22.684Z,21.50
2023-03-02T04:56:49.631Z,16.83
2023-03-02T04:59:18.013Z,16.08
2023-03-02T05:01:45.162Z,17.52
2023-03-02T05:04:12.530Z,26.70
2023-03-02T05:06:39.719Z,15.25
2023-03-02T05:09:06.878Z,13.40
2023-03-02T05:11:34.341Z,13.68
2023-03-02T05:14:03.706Z,14.07
2023-03-02T05:16:34.337Z,15.85
2023-03-02T05:19:03.648Z,14.48
2023-03-02T05:21:30.599Z,11.10
2023-03-02T05:23:57.251Z,11.57
2023-03-02T05:26:24.145Z,13.95
2023-03-02T05:28:52.965Z,12.48
2023-03-02T05:31:32.159Z,13.25
2023-03-02T05:33:58.824Z,14.80
2023-03-02T05:36:25.580Z,18.45
2023-03-02T05:38:52.240Z,14.07
2023-03-02T05:41:23.404Z,13.85
2023-03-02T05:43:50.300Z,14.10
2023-03-02T05:46:21.909Z,14.00
2023-03-02T05:48:50.117Z,14.68
2023-03-02T05:51:16.974Z,19.58
2023-03-02T05:53:43.818Z,16.65
2023-03-02T05:56:10.665Z,19.02
2023-03-02T05:58:37.386Z,17.17
2023-03-02T06:01:09.926Z,15.48
2023-03-02T06:03:36.658Z,19.63
2023-03-02T06:06:03.496Z,18.73
2023-03-02T06:08:30.152Z,15.90
2023-03-02T06:10:57.328Z,22.63
2023-03-02T06:13:24.036Z,24.63
2023-03-02T06:15:53.714Z,17.08
2023-03-02T06:18:20.656Z,16.60
2023-03-02T06:20:47.456Z,13.57
2023-03-02T06:23:14.190Z,18.10
2023-03-02T06:25:43.743Z,14.75
2023-03-02T06:30:37.059Z,15.15
2023-03-02T06:33:03.941Z,16.20
2023-03-02T06:35:30.794Z,16.40
2023-03-02T06:37:57.593Z,15.30
2023-03-02T06:40:24.333Z,17.90
2023-03-02T06:42:51.380Z,15.10
2023-03-02T06:45:18.439Z,15.55
2023-03-02T06:47:45.091Z,20.75
2023-03-02T06:50:12.262Z,18.52
2023-03-02T06:52:38.960Z,17.25
2023-03-02T06:55:06.380Z,15.20
2023-03-02T06:57:35.768Z,20.58
2023-03-02T07:00:09.899Z,16.35
2023-03-02T07:02:37.169Z,20.23
2023-03-02T07:05:04.431Z,22.17
2023-03-02T07:07:31.143Z,20.00
2023-03-02T07:09:57.801Z,23.88
2023-03-02T07:12:24.490Z,28.30
2023-03-02T07:14:51.163Z,28.40
2023-03-02T07:17:17.923Z,31.00
2023-03-02T07:19:44.564Z,34.58
2023-03-02T07:22:11.231Z,44.38
2023-03-02T07:24:38.006Z,47.17
2023-03-02T07:27:04.759Z,36.13
2023-03-02T07:29:31.410Z,38.38
2023-03-02T07:32:00.879Z,26.88
2023-03-02T07:34:28.043Z,32.70
2023-03-02T07:36:55.064Z,26.40
2023-03-02T07:39:22.072Z,30.73
2023-03-02T07:41:48.743Z,28.55
2023-03-02T07:44:15.668Z,33.75
2023-03-02T07:46:42.621Z,29.00
2023-03-02T07:49:09.319Z,29.13
2023-03-02T07:51:36.041Z,30.40
2023-03-02T07:54:05.058Z,36.75
2023-03-02T07:56:34.239Z,33.22
2023-03-02T07:59:01.077Z,32.05
2023-03-02T08:01:27.732Z,31.65
2023-03-02T08:03:54.495Z,31.80
2023-03-02T08:06:21.404Z,31.08
2023-03-02T08:08:48.238Z,30.67
2023-03-02T08:11:17.746Z,33.42
2023-03-02T08:13:45.775Z,30.02
2023-03-02T08:16:14.574Z,30.42
2023-03-02T08:18:41.508Z,31.58
2023-03-02T08:21:16.572Z,28.50
2023-03-02T08:23:43.712Z,26.80
2023-03-02T08:26:13.851Z,31.65
2023-03-02T08:28:41.596Z,28.00
2023-03-02T08:31:09.270Z,26.92
2023-03-02T08:33:36.776Z,32.75
2023-03-02T08:36:11.128Z,30.08
2023-03-02T08:38:37.867Z,29.00
2023-03-02T08:41:09.383Z,25.35
2023-03-02T08:43:36.344Z,27.05
2023-03-02T08:46:03.565Z,23.30
2023-03-02T08:48:30.581Z,27.20
2023-03-02T08:51:00.490Z,24.63
2023-03-02T08:53:29.089Z,23.98
2023-03-02T08:55:57.698Z,24.58
2023-03-02T08:58:25.266Z,24.23
2023-03-02T09:00:52.387Z,21.13
2023-03-02T09:03:19.129Z,21.65
2023-03-02T09:05:46.157Z,21.70
2023-03-02T09:08:13.341Z,20.15
2023-03-02T09:10:40.196Z,20.67
2023-03-02T09:13:08.522Z,20.52
2023-03-02T09:15:35.534Z,23.08
2023-03-02T09:18:02.354Z,23.42
2023-03-02T09:20:29.195Z,23.48
2023-03-02T09:22:55.804Z,21.98
2023-03-02T09:25:22.557Z,21.08
2023-03-02T09:27:49.291Z,20.30
2023-03-02T09:30:16.537Z,27.70
2023-03-02T09:32:43.297Z,25.88
2023-03-02T09:35:10.467Z,25.40
2023-03-02T09:37:41.798Z,23.80
2023-03-02T09:40:19.133Z,17.83
2023-03-02T09:43:04.401Z,22.23
2023-03-02T09:45:50.069Z,23.05
2023-03-02T09:48:38.243Z,24.45
2023-03-02T09:51:11.910Z,25.50
2023-03-02T09:53:47.136Z,26.52
2023-03-02T09:56:17.753Z,27.48
2023-03-02T09:58:54.360Z,25.20
2023-03-02T10:01:31.300Z,26.92
2023-03-02T10:04:08.855Z,26.50
2023-03-02T10:06:35.546Z,24.75
2023-03-02T10:09:02.377Z,24.27
2023-03-02T10:12:12.542Z,26.10
2023-03-02T10:14:44.349Z,20.50
2023-03-02T10:17:37.643Z,23.80
2023-03-02T10:20:14.642Z,24.08
2023-03-02T10:22:48.300Z,24.40
2023-03-02T10:25:32.142Z,24.52
2023-03-02T10:28:12.798Z,30.08
2023-03-02T10:30:43.309Z,29.05
2023-03-02T10:33:16.780Z,30.13
2023-03-02T10:35:51.884Z,27.95
2023-03-02T10:38:21.577Z,29.05
2023-03-02T10:40:48.419Z,32.25
2023-03-02T10:43:19.096Z,26.77
2023-03-02T10:45:57.465Z,26.45
2023-03-02T10:48:24.426Z,22.10
2023-03-02T10:50:55.405Z,24.60
2023-03-02T10:53:22.181Z,31.58
2023-03-02T10:55:51.593Z,27.38
2023-03-02T10:58:31.137Z,29.38
2023-03-02T11:01:07.353Z,30.00
2023-03-02T11:03:34.131Z,29.25
2023-03-02T11:06:18.463Z,30.42
2023-03-02T11:08:45.277Z,26.67
2023-03-02T11:11:23.530Z,23.73
2023-03-02T11:13:50.460Z,30.58
2023-03-02T11:16:17.109Z,23.25
2023-03-02T11:18:58.945Z,25.45
2023-03-02T11:21:55.083Z,26.90
2023-03-02T11:24:29.395Z,31.33
2023-03-02T11:27:08.110Z,25.27
2023-03-02T11:30:04.342Z,23.80
2023-03-02T11:32:45.228Z,23.00
2023-03-02T11:35:40.388Z,20.67
2023-03-02T11:38:30.507Z,24.45
2023-03-02T11:41:14.491Z,24.92
2023-03-02T11:43:42.668Z,21.55
2023-03-02T11:46:24.135Z,21.13
2023-03-02T11:49:00.903Z,21.75
2023-03-02T11:51:33.248Z,22.63
2023-03-02T11:54:11.913Z,22.50
2023-03-02T11:56:40.014Z,22.25
2023-03-02T11:59:20.256Z,24.13
2023-03-02T12:01:51.388Z,22.05
2023-03-02T12:04:33.644Z,28.55
2023-03-02T12:07:03.593Z,20.58
2023-03-02T12:09:37.199Z,24.20
2023-03-02T12:12:35.860Z,25.98
2023-03-02T12:15:03.067Z,23.17
2023-03-02T12:17:33.337Z,23.95
2023-03-02T12:20:09.339Z,22.63
2023-03-02T12:22:37.702Z,25.33
2023-03-02T12:25:05.379Z,21.65
2023-03-02T12:27:38.936Z,23.23
2023-03-02T12:30:17.118Z,23.02
2023-03-02T12:32:58.069Z,22.95
2023-03-02T12:35:26.421Z,23.25
2023-03-02T12:37:58.293Z,24.08
2023-03-02T12:40:41.413Z,24.15
2023-03-02T12:43:25.668Z,22.45
2023-03-02T12:46:17.340Z,21.77
2023-03-02T12:49:04.518Z,21.52
2023-03-02T12:51:55.264Z,21.33
2023-03-02T12:54:28.076Z,23.58
2023-03-02T12:57:15.313Z,26.23
2023-03-02T12:59:43.046Z,25.45
2023-03-02T13:02:09.782Z,25.10
2023-03-02T13:04:36.571Z,22.00
2023-03-02T13:07:03.288Z,22.98
2023-03-02T13:09:31.361Z,23.15
2023-03-02T13:11:58.129Z,26.83
2023-03-02T13:14:27.178Z,21.58
2023-03-02T13:16:56.228Z,25.67
2023-03-02T13:19:24.589Z,26.75
2023-03-02T13:21:51.880Z,26.60
2023-03-02T13:24:46.138Z,27.10
2023-03-02T13:27:17.733Z,28.17
2023-03-02T13:29:45.723Z,26.05
2023-03-02T13:32:35.193Z,27.45
2023-03-02T13:35:03.247Z,28.63
2023-03-02T13:37:35.104Z,28.50
2023-03-02T13:40:04.670Z,24.67
2023-03-02T13:45:28.953Z,29.58
2023-03-02T13:47:58.153Z,27.38
2023-03-02T13:50:28.231Z,23.90
2023-03-02T13:52:58.363Z,22.40
2023-03-02T13:57:53.626Z,23.00
2023-03-02T14:00:24.939Z,30.00
2023-03-02T14:02:51.785Z,25.60
2023-03-02T14:05:27.234Z,26.90
2023-03-02T14:07:54.141Z,26.60
2023-03-02T14:10:21.225Z,23.38
2023-03-02T14:12:58.379Z,22.67
2023-03-02T14:15:25.260Z,26.27
2023-03-02T14:17:51.948Z,23.70
2023-03-02T14:20:20.200Z,25.90
2023-03-02T14:22:48.042Z,25.42
2023-03-02T14:25:15.365Z,28.50
2023-03-02T14:27:43.318Z,27.52
2023-03-02T14:30:19.504Z,27.67
2023-03-02T14:32:46.772Z,30.83
2023-03-02T14:35:15.895Z,29.80
2023-03-02T14:37:49.757Z,29.70
2023-03-02T14:40:18.970Z,33.75
2023-03-02T14:42:45.772Z,32.35
2023-03-02T14:45:13.057Z,30.98
2023-03-02T14:47:39.992Z,30.65
2023-03-02T14:50:07.509Z,30.92
2023-03-02T14:52:41.127Z,34.47
2023-03-02T14:55:15.453Z,33.90
2023-03-02T14:57:42.274Z,33.03
2023-03-02T15:00:13.814Z,31.88
2023-03-02T15:02:40.905Z,31.33
2023-03-02T15:05:10.377Z,31.77
2023-03-02T15:07:39.058Z,36.13
2023-03-02T15:10:07.854Z,33.97
2023-03-02T15:12:34.834Z,31.73
2023-03-02T15:15:01.720Z,32.88
2023-03-02T15:17:28.979Z,33.25
2023-03-02T15:19:56.065Z,33.35
2023-03-02T15:22:23.086Z,30.45
2023-03-02T15:24:49.723Z,27.85
2023-03-02T15:27:17.019Z,31.92
2023-03-02T15:29:48.358Z,28.58
2023-03-02T15:32:16.380Z,31.92
2023-03-02T15:34:43.864Z,29.25
2023-03-02T15:37:12.456Z,27.95
2023-03-02T15:39:40.217Z,38.25
2023-03-02T15:42:07.458Z,33.13
2023-03-02T15:44:34.523Z,29.00
2023-03-02T15:47:01.409Z,29.73
2023-03-02T15:49:29.591Z,26.38
2023-03-02T15:52:00.263Z,33.22
2023-03-02T15:54:29.069Z,30.33
2023-03-02T15:56:56.214Z,28.10
2023-03-02T15:59:28.491Z,29.95
2023-03-02T16:01:59.865Z,28.63
2023-03-02T16:04:28.782Z,31.15
2023-03-02T16:06:56.849Z,24.77
2023-03-02T16:09:25.466Z,29.70
2023-03-02T16:11:52.940Z,34.05
2023-03-02T16:14:20.264Z,32.38
2023-03-02T16:16:47.732Z,36.35
2023-03-02T16:19:19.000Z,37.10
2023-03-02T16:21:47.260Z,36.15
2023-03-02T16:24:16.281Z,37.25
2023-03-02T16:26:46.604Z,37.15
2023-03-02T16:29:14.054Z,41.90
2023-03-02T16:31:42.193Z,40.33
2023-03-02T16:34:09.905Z,40.88
2023-03-02T16:36:39.377Z,48.88
2023-03-02T16:39:07.779Z,50.30
2023-03-02T16:41:35.325Z,45.47
2023-03-02T16:44:02.682Z,49.90
2023-03-02T16:46:32.243Z,43.72
2023-03-02T16:51:26.608Z,52.97
2023-03-02T16:53:54.092Z,50.78
2023-03-02T16:56:21.856Z,49.63
2023-03-02T16:58:49.253Z,48.63
2023-03-02T17:01:19.864Z,59.17
2023-03-02T17:03:49.360Z,52.40
2023-03-02T17:06:19.624Z,56.85
2023-03-02T17:08:46.964Z,53.88
2023-03-02T17:11:14.285Z,53.20
2023-03-02T17:13:41.403Z,55.63
2023-03-02T17:16:08.801Z,57.92
2023-03-02T17:18:36.152Z,52.83
2023-03-02T17:21:05.504Z,53.42
2023-03-02T17:23:33.105Z,51.45
2023-03-02T17:26:00.366Z,53.30
2023-03-02T17:28:27.851Z,55.72
2023-03-02T17:30:55.295Z,54.53
2023-03-02T17:33:22.808Z,54.35
2023-03-02T17:35:50.444Z,55.65
2023-03-02T17:38:17.986Z,56.38
2023-03-02T17:40:45.473Z,60.20
2023-03-02T17:43:12.922Z,60.78
2023-03-02T17:45:40.319Z,60.80
2023-03-02T17:48:07.757Z,64.60
2023-03-02T17:50:35.193Z,61.17
2023-03-02T17:53:03.210Z,61.53
2023-03-02T17:55:30.696Z,69.15
2023-03-02T17:57:58.144Z,66.93
2023-03-02T18:00:25.497Z,66.68
2023-03-02T18:02:53.382Z,67.68
2023-03-02T18:05:21.738Z,67.40
2023-03-02T18:07:49.024Z,63.10
2023-03-02T18:10:16.313Z,62.30
2023-03-02T18:12:43.571Z,66.47
2023-03-02T18:15:12.505Z,65.38
2023-03-02T18:17:39.687Z,70.90
2023-03-02T18:20:07.543Z,73.60
2023-03-02T18:22:34.653Z,67.40
2023-03-02T18:25:02.236Z,68.03
2023-03-02T18:27:29.615Z,65.13
2023-03-02T18:29:56.735Z,71.22
2023-03-02T18:32:23.952Z,78.32
2023-03-02T18:34:51.438Z,67.88
2023-03-02T18:37:18.787Z,62.92
2023-03-02T18:39:46.111Z,64.35
2023-03-02T18:42:13.406Z,64.95
2023-03-02T18:44:40.980Z,70.72
2023-03-02T18:47:08.747Z,70.53
2023-03-02T18:49:35.976Z,66.72
2023-03-02T18:52:06.897Z,63.30
2023-03-02T18:54:34.124Z,68.95
2023-03-02T18:57:03.697Z,65.55
2023-03-02T19:01:58.005Z,65.43
2023-03-02T19:04:26.803Z,65.70
2023-03-02T19:06:56.403Z,67.87
2023-03-02T19:11:50.918Z,70.90
2023-03-02T19:14:18.475Z,83.03
2023-03-02T19:16:46.123Z,76.95
2023-03-02T19:19:13.537Z,70.15
2023-03-02T19:21:46.760Z,72.13
2023-03-02T19:24:13.663Z,66.10
2023-03-02T19:26:40.490Z,75.25
2023-03-02T19:29:07.157Z,69.28
2023-03-02T19:31:38.185Z,67.55
2023-03-02T19:34:05.526Z,65.32
2023-03-02T19:36:32.163Z,65.05
2023-03-02T19:38:58.982Z,66.43
2023-03-02T19:41:25.658Z,64.80
2023-03-02T19:43:52.507Z,61.80
2023-03-02T19:46:19.338Z,65.72
2023-03-02T19:48:46.142Z,64.93
2023-03-02T19:51:14.983Z,64.10
2023-03-02T19:53:43.126Z,68.82
2023-03-02T19:56:14.262Z,64.65
2023-03-02T19:58:47.638Z,66.97
2023-03-02T20:01:21.832Z,70.88
2023-03-02T20:03:51.676Z,72.53
2023-03-02T20:08:48.125Z,67.53
2023-03-02T20:11:15.624Z,70.13
2023-03-02T20:13:42.400Z,75.60
2023-03-02T20:16:12.439Z,73.65
2023-03-02T20:18:39.421Z,75.25
2023-03-02T20:21:06.303Z,72.05
2023-03-02T20:23:33.097Z,72.85
2023-03-02T20:25:59.880Z,72.25
2023-03-02T20:28:26.751Z,72.43
2023-03-02T20:30:59.248Z,76.68
2023-03-02T20:33:30.220Z,73.63
2023-03-02T20:35:58.933Z,72.00
2023-03-02T20:38:31.063Z,72.45
2023-03-02T20:40:57.958Z,65.88
2023-03-02T20:43:25.452Z,70.10
2023-03-02T20:45:52.355Z,68.63
2023-03-02T20:48:24.423Z,76.85
2023-03-02T20:50:51.796Z,72.63
2023-03-02T20:53:19.439Z,72.38
2023-03-02T20:55:46.726Z,74.40
2023-03-02T20:58:14.092Z,80.82
2023-03-02T21:00:41.451Z,76.72
2023-03-02T21:03:09.579Z,81.53
2023-03-02T21:05:41.041Z,78.05
2023-03-02T21:08:12.647Z,80.05
2023-03-02T21:10:39.527Z,87.72
2023-03-02T21:13:07.666Z,88.13
2023-03-02T21:15:35.480Z,83.80
2023-03-02T21:18:02.435Z,90.15
2023-03-02T21:20:32.796Z,95.70
2023-03-02T21:22:59.811Z,88.18
2023-03-02T21:25:27.112Z,96.20
2023-03-02T21:27:54.572Z,91.93
2023-03-02T21:30:25.821Z,93.03
2023-03-02T21:32:52.524Z,92.88
2023-03-02T21:35:20.940Z,102.30
2023-03-02T21:37:53.797Z,103.60
2023-03-02T21:40:25.529Z,114.78
2023-03-02T21:42:52.768Z,103.82
2023-03-02T21:45:20.197Z,100.25
2023-03-02T21:47:47.179Z,108.30
2023-03-02T21:50:18.995Z,97.30
2023-03-02T21:52:45.677Z,106.28
2023-03-02T21:55:13.310Z,98.90
2023-03-02T21:57:40.831Z,101.47
2023-03-02T22:00:10.462Z,105.72
2023-03-02T22:02:37.552Z,102.93
2023-03-02T22:05:04.803Z,99.47
2023-03-02T22:07:31.695Z,101.78
2023-03-02T22:09:58.452Z,105.68
2023-03-02T22:12:25.121Z,108.25
2023-03-02T22:14:53.516Z,122.15
2023-03-02T22:17:23.704Z,116.55
2023-03-02T22:19:52.360Z,108.45
2023-03-02T22:22:24.356Z,113.88
2023-03-02T22:24:52.517Z,119.78
2023-03-02T22:27:25.476Z,108.18
2023-03-02T22:29:55.252Z,114.07
2023-03-02T22:32:36.498Z,99.25
2023-03-02T22:35:21.166Z,99.70
2023-03-02T22:37:48.893Z,96.22
2023-03-02T22:40:29.039Z,89.45
2023-03-02T22:43:21.871Z,98.00
2023-03-02T22:45:48.684Z,96.32
2023-03-02T22:48:23.941Z,94.72
2023-03-02T22:50:52.749Z,103.03
2023-03-02T22:53:22.563Z,97.65
2023-03-02T22:55:49.339Z,109.13
2023-03-02T22:58:19.393Z,111.13
2023-03-02T23:00:47.900Z,109.05
2023-03-02T23:03:18.633Z,94.35
2023-03-02T23:05:49.095Z,94.03
2023-03-02T23:08:26.359Z,93.22
2023-03-02T23:10:57.587Z,89.82
2023-03-02T23:13:40.033Z,88.32
2023-03-02T23:16:17.599Z,79.32
2023-03-02T23:18:45.085Z,73.65
2023-03-02T23:21:16.608Z,67.85
2023-03-02T23:23:43.313Z,64.95
2023-03-02T23:26:10.111Z,66.55
2023-03-02T23:28:36.861Z,70.32
2023-03-02T23:31:04.037Z,72.90
2023-03-02T23:33:30.862Z,82.00
2023-03-02T23:35:57.764Z,87.03
2023-03-02T23:38:24.468Z,82.93
2023-03-02T23:40:51.141Z,81.80
2023-03-02T23:43:18.022Z,94.07
2023-03-02T23:45:44.828Z,92.60
2023-03-02T23:48:11.456Z,95.50
2023-03-02T23:50:38.306Z,90.93
2023-03-02T23:53:05.094Z,96.47
2023-03-02T23:55:32.407Z,97.97
2023-03-02T23:58:02.291Z,91.18
